Portada
METAR-TAF:

METAR-TAF

Aeropuertos :

Toulouse, Francia

Aeropuerto de Toulouse-Blagnac

latitud: 43-38N, longitud: 001-22E, altitud: 152 m

Observación

El informe se hizo hace 27 minutos, a las 15:30 UTC
Viento 5 kt del norte-noroeste
Temperatura 7°C
Humedad 53%
Presión 1009 hPa
Visibilidad 10 km o más
sin nubes por debajo de 1500 m y sin presencia de cumulonimbus.

METAR: LFBO 241530Z AUTO 34005KT CAVOK 07/M02 Q1009 NOSIG

Hora: 16:57 (15:57 UTC)

Pronóstico

El informe se hizo hace 4 horas y 57 minutos, a las 11:00 UTC
Pronóstico válido del 24 a las 12 UTC al 25 a las 18 UTC
Viento 5 kt del oeste-noroeste
Visibilidad 10 km o más
sin nubes por debajo de 1500 m y sin presencia de cumulonimbus.
Probabilidad 30% :
Temporalmente
del 25 a las 03 UTC al 25 a las 08 UTC
Visibilidad: 4500 m
neblina

TAF: LFBO 241100Z 2412/2518 30005KT CAVOK PROB30 TEMPO 2503/2508 4500 BR

Observaciones y pronósticos meteorológicos de más de 4000 aeropuertos (mensajes METAR y TAF).

Los puntos amarillos y rojos representan las estaciones disponibles.

Ponga el ratón en el punto deseado para ver el nombre de la estación.

Haga clic para ver las observaciones y los pronósticos meteorológicos.

Para cambiar el mapa : haga clic en los botones verdes con una cruz de color negro para hacer un zoom, en el botón verde con un guión para alejar o en las flechas verdes para mapas adyacentes.


METAR-TAF: